Time;durP1;ratioP1;P1;durP2;ratioP2;P2;SDS_P1;SDS_P2;PMS_P1;PMS_P2;Temp;Humidity;BMP_temperature;BMP_pressure;BME280_temperature;BME280_humidity;BME280_pressure;Samples;Min_cycle;Max_cycle;Signal;HPM_P1;HPM_P2
2021/09/21 00:01:19;;;;;;;24.20;5.60;;;30.20;84.20;;;;;;5045874;28;20112;-48
2021/09/21 00:03:46;;;;;;;20.85;9.10;;;30.20;84.20;;;;;;5045120;28;20032;-52
2021/09/21 00:06:13;;;;;;;17.02;5.40;;;30.10;84.00;;;;;;5045634;28;20026;-49
2021/09/21 00:08:40;;;;;;;16.15;5.38;;;30.10;84.00;;;;;;5045130;28;20056;-48
2021/09/21 00:11:08;;;;;;;14.15;4.85;;;30.20;84.10;;;;;;5044925;28;20052;-50
2021/09/21 00:13:35;;;;;;;20.60;5.10;;;30.10;84.10;;;;;;5045302;28;20280;-53
2021/09/21 00:16:03;;;;;;;15.55;4.97;;;30.10;84.10;;;;;;5045361;28;20021;-53
2021/09/21 00:18:31;;;;;;;24.05;4.85;;;30.10;84.20;;;;;;5043886;28;20029;-49
2021/09/21 00:20:58;;;;;;;17.90;4.10;;;30.10;84.20;;;;;;5045216;28;20021;-52
2021/09/21 00:23:25;;;;;;;13.80;3.60;;;30.10;84.20;;;;;;5044752;28;20049;-48
2021/09/21 00:25:52;;;;;;;18.38;4.28;;;30.10;84.20;;;;;;5044995;28;20027;-48
2021/09/21 00:28:19;;;;;;;14.88;3.70;;;30.10;84.20;;;;;;5044854;28;20068;-51
2021/09/21 00:30:50;;;;;;;13.77;3.75;;;30.00;84.40;;;;;;5044987;28;20033;-52
2021/09/21 00:33:20;;;;;;;36.33;8.23;;;30.00;84.70;;;;;;5044506;28;20102;-48
2021/09/21 00:35:49;;;;;;;37.33;7.05;;;30.00;84.80;;;;;;5044431;28;20033;-53
2021/09/21 00:38:19;;;;;;;17.35;4.78;;;30.00;84.80;;;;;;5044698;28;20021;-54
2021/09/21 00:40:46;;;;;;;14.10;4.50;;;30.00;85.30;;;;;;5044739;28;20021;-51
2021/09/21 00:43:22;;;;;;;15.73;4.85;;;30.00;85.30;;;;;;5044376;28;20032;-52
2021/09/21 00:45:52;;;;;;;19.23;5.60;;;30.00;84.80;;;;;;5044523;28;20302;-53
2021/09/21 00:48:20;;;;;;;22.40;9.07;;;29.90;84.90;;;;;;5044365;28;20222;-55
2021/09/21 00:50:48;;;;;;;24.65;8.95;;;29.90;84.90;;;;;;5044579;28;20021;-51
2021/09/21 00:53:15;;;;;;;18.35;7.13;;;29.90;84.90;;;;;;5044115;28;20088;-56
2021/09/21 00:55:42;;;;;;;26.02;5.45;;;29.90;84.80;;;;;;5044455;28;20029;-54
2021/09/21 00:58:09;;;;;;;15.70;4.95;;;29.80;85.00;;;;;;5044197;28;20033;-49
2021/09/21 01:00:36;;;;;;;17.35;4.43;;;29.70;85.00;;;;;;5044192;28;20175;-49
2021/09/21 01:03:03;;;;;;;20.15;5.03;;;29.70;85.10;;;;;;5044242;28;20017;-46
2021/09/21 01:05:32;;;;;;;18.25;4.78;;;29.70;85.10;;;;;;5044318;28;20205;-52
2021/09/21 01:07:59;;;;;;;13.73;4.22;;;29.70;85.10;;;;;;5044220;28;20022;-56
2021/09/21 01:10:28;;;;;;;20.70;4.70;;;29.70;85.00;;;;;;5044356;28;20089;-50
2021/09/21 01:12:54;;;;;;;17.95;3.75;;;29.70;84.90;;;;;;5043814;28;20055;-53
2021/09/21 01:15:22;;;;;;;18.85;4.07;;;29.70;84.80;;;;;;5044081;28;20056;-50
2021/09/21 01:17:50;;;;;;;16.92;4.25;;;29.70;84.80;;;;;;5043989;28;20059;-53
2021/09/21 01:20:18;;;;;;;19.95;4.35;;;29.70;84.80;;;;;;5043934;28;20025;-52
2021/09/21 01:22:51;;;;;;;17.65;3.80;;;29.70;84.70;;;;;;5043813;28;20080;-56
2021/09/21 01:25:18;;;;;;;22.63;3.80;;;29.70;84.50;;;;;;5046216;28;20044;-50
2021/09/21 01:27:45;;;;;;;18.08;4.10;;;29.70;84.50;;;;;;5043729;28;20029;-51
2021/09/21 01:30:15;;;;;;;15.07;3.80;;;29.70;84.40;;;;;;5043468;28;20041;-50
2021/09/21 01:32:43;;;;;;;15.40;4.10;;;29.70;84.40;;;;;;5044057;28;20017;-51
2021/09/21 01:35:11;;;;;;;8.38;3.78;;;29.70;84.70;;;;;;5043786;28;20059;-48
2021/09/21 01:37:48;;;;;;;12.90;4.10;;;29.70;84.50;;;;;;5043617;28;20032;-53
2021/09/21 01:40:15;;;;;;;9.85;3.47;;;29.70;84.30;;;;;;5043771;28;20033;-49
2021/09/21 01:42:44;;;;;;;9.45;4.22;;;29.70;84.30;;;;;;5043823;28;20175;-49
2021/09/21 01:45:12;;;;;;;15.75;4.68;;;29.70;84.40;;;;;;5043676;28;20084;-52
2021/09/21 01:47:39;;;;;;;20.05;4.30;;;29.70;84.40;;;;;;5043930;28;20089;-51
2021/09/21 01:52:43;;;;;;;13.40;4.72;;;29.60;84.60;;;;;;5043817;28;20076;-48
2021/09/21 01:58:15;;;;;;;14.90;4.55;;;29.70;84.60;;;;;;5043603;28;20359;-53
2021/09/21 02:00:42;;;;;;;11.43;3.55;;;29.60;84.50;;;;;;5043427;28;20020;-49
2021/09/21 02:03:09;;;;;;;10.30;3.45;;;29.60;84.40;;;;;;5042546;28;20018;-56
2021/09/21 02:05:36;;;;;;;14.85;3.50;;;29.60;84.50;;;;;;5043439;28;20336;-57
2021/09/21 02:08:03;;;;;;;17.55;3.35;;;29.60;84.60;;;;;;5043469;28;20026;-53
2021/09/21 02:10:30;;;;;;;7.60;3.30;;;29.60;84.60;;;;;;5043625;28;20021;-47
2021/09/21 02:12:57;;;;;;;13.63;3.42;;;29.60;84.60;;;;;;5043883;28;20092;-55
2021/09/21 02:15:24;;;;;;;16.30;3.63;;;29.60;84.60;;;;;;5042324;28;20072;-54
2021/09/21 02:17:51;;;;;;;11.50;3.08;;;29.60;84.70;;;;;;5043647;28;20021;-54
2021/09/21 02:20:17;;;;;;;12.55;3.45;;;29.60;84.70;;;;;;5043678;28;20259;-52
2021/09/21 02:22:45;;;;;;;14.25;3.30;;;29.60;84.90;;;;;;5043318;28;20084;-58
2021/09/21 02:25:12;;;;;;;11.20;3.75;;;29.60;84.80;;;;;;5043340;28;20084;-55
2021/09/21 02:27:39;;;;;;;8.95;3.20;;;29.60;84.80;;;;;;5043629;28;20087;-51
2021/09/21 02:30:07;;;;;;;10.32;3.13;;;29.50;84.80;;;;;;5043213;28;20018;-53
2021/09/21 02:32:34;;;;;;;9.70;3.00;;;29.50;84.80;;;;;;5043604;28;20025;-50
2021/09/21 02:35:04;;;;;;;8.98;2.95;;;29.50;84.80;;;;;;5043264;28;20013;-50
2021/09/21 02:37:33;;;;;;;8.80;3.10;;;29.50;84.80;;;;;;5043038;28;20084;-52
2021/09/21 02:40:00;;;;;;;6.72;3.38;;;29.50;84.70;;;;;;5043229;28;20026;-52
2021/09/21 02:42:27;;;;;;;14.27;3.20;;;29.50;84.80;;;;;;5046431;28;20048;-53
2021/09/21 02:44:54;;;;;;;19.65;3.47;;;29.50;84.80;;;;;;5046580;28;20105;-55
2021/09/21 02:47:21;;;;;;;12.70;3.13;;;29.50;84.90;;;;;;5046776;28;20088;-51
2021/09/21 02:49:47;;;;;;;12.80;2.80;;;29.50;84.80;;;;;;5046667;28;20210;-51
2021/09/21 02:52:14;;;;;;;7.03;2.90;;;29.50;84.80;;;;;;5046631;28;20039;-54
2021/09/21 02:54:41;;;;;;;14.63;3.15;;;29.50;85.30;;;;;;5046510;28;20092;-47
2021/09/21 02:57:11;;;;;;;10.23;3.58;;;29.50;84.80;;;;;;5046712;28;20085;-53
2021/09/21 02:59:38;;;;;;;8.00;2.85;;;29.50;84.80;;;;;;5045260;28;20089;-47
2021/09/21 03:02:04;;;;;;;11.23;3.13;;;29.40;84.80;;;;;;5046710;28;20026;-47
2021/09/21 03:04:36;;;;;;;10.45;3.55;;;29.50;84.80;;;;;;5046379;28;20318;-54
2021/09/21 03:07:05;;;;;;;8.23;2.80;;;29.40;84.80;;;;;;5046311;28;20030;-52
2021/09/21 03:12:24;;;;;;;7.97;2.70;;;29.40;84.70;;;;;;5046018;28;20068;-50
2021/09/21 03:17:35;;;;;;;12.73;2.70;;;29.40;84.70;;;;;;5046282;28;20036;-49
2021/09/21 03:20:04;;;;;;;8.45;3.15;;;29.40;84.60;;;;;;5046106;28;20321;-48
2021/09/21 03:22:30;;;;;;;12.35;3.13;;;29.40;84.60;;;;;;5046265;28;20094;-52
2021/09/21 03:24:57;;;;;;;64.82;7.22;;;29.40;84.50;;;;;;5045879;28;20018;-57
2021/09/21 03:27:24;;;;;;;15.70;3.40;;;29.40;84.50;;;;;;5045881;28;20029;-56
2021/09/21 03:29:51;;;;;;;18.75;3.55;;;29.40;84.40;;;;;;5045907;28;20217;-49
2021/09/21 03:32:17;;;;;;;10.57;3.33;;;29.40;84.50;;;;;;5045980;28;20030;-50
2021/09/21 03:34:44;;;;;;;19.80;3.38;;;29.30;84.40;;;;;;5044634;28;20032;-48
2021/09/21 03:37:11;;;;;;;7.03;2.97;;;29.30;84.40;;;;;;5045958;28;20053;-54
2021/09/21 03:39:39;;;;;;;12.88;2.97;;;29.30;84.40;;;;;;5045594;28;20021;-51
2021/09/21 03:42:05;;;;;;;8.60;2.75;;;29.30;84.30;;;;;;5045849;28;20022;-51
2021/09/21 03:44:32;;;;;;;7.60;2.90;;;29.30;84.20;;;;;;5045775;28;20080;-58
2021/09/21 03:46:59;;;;;;;10.95;2.88;;;29.30;84.20;;;;;;5045771;28;20210;-58
2021/09/21 03:49:25;;;;;;;7.50;2.95;;;29.30;84.20;;;;;;5045552;28;20027;-50
2021/09/21 03:51:53;;;;;;;7.70;3.03;;;29.30;84.10;;;;;;5044423;28;20026;-47
2021/09/21 03:54:20;;;;;;;4.53;2.55;;;29.30;84.10;;;;;;5045436;28;20028;-49
2021/09/21 03:56:47;;;;;;;9.88;2.88;;;29.30;84.10;;;;;;5045575;28;20031;-48
2021/09/21 03:59:13;;;;;;;6.25;2.50;;;29.30;84.00;;;;;;5045346;28;20037;-53
2021/09/21 04:01:40;;;;;;;6.60;2.67;;;29.30;84.00;;;;;;5045317;28;20297;-52
2021/09/21 04:04:07;;;;;;;7.82;2.38;;;29.30;84.10;;;;;;5045365;28;20048;-50
2021/09/21 04:06:34;;;;;;;6.60;2.38;;;29.30;84.10;;;;;;5044971;28;20014;-54
2021/09/21 04:09:01;;;;;;;14.32;3.08;;;29.30;83.90;;;;;;5045027;28;20026;-55
2021/09/21 04:11:27;;;;;;;7.38;2.63;;;29.30;83.90;;;;;;5044778;28;20056;-57
2021/09/21 04:13:54;;;;;;;9.25;2.10;;;29.30;83.90;;;;;;5045051;28;20021;-51
2021/09/21 04:16:21;;;;;;;6.70;2.50;;;29.30;83.80;;;;;;5044885;28;20017;-56
2021/09/21 04:18:47;;;;;;;10.27;2.47;;;29.30;83.80;;;;;;5045468;28;20085;-47
2021/09/21 04:21:14;;;;;;;7.30;2.08;;;29.20;83.60;;;;;;5045046;28;20041;-50
2021/09/21 04:23:40;;;;;;;9.88;2.78;;;29.20;83.70;;;;;;5045336;28;20026;-55
2021/09/21 04:26:10;;;;;;;3.78;2.30;;;29.20;83.80;;;;;;5044942;28;20205;-52
2021/09/21 04:28:40;;;;;;;6.55;2.55;;;29.20;83.80;;;;;;5045293;28;20029;-53
2021/09/21 04:31:10;;;;;;;4.28;2.10;;;29.30;83.90;;;;;;5044470;28;20029;-48
2021/09/21 04:33:42;;;;;;;37.35;4.47;;;29.30;83.80;;;;;;5045067;28;20025;-52
2021/09/21 04:36:11;;;;;;;38.05;5.25;;;29.20;83.80;;;;;;5044617;28;20096;-53
2021/09/21 04:38:39;;;;;;;38.63;5.57;;;29.10;84.40;;;;;;5044835;28;20044;-48
2021/09/21 04:41:06;;;;;;;67.97;7.65;;;29.10;84.80;;;;;;5044946;28;20025;-52
2021/09/21 04:43:37;;;;;;;54.95;7.75;;;29.10;85.70;;;;;;5043744;28;20021;-48
2021/09/21 04:46:09;;;;;;;49.03;6.78;;;29.00;86.30;;;;;;5044433;28;20026;-48
2021/09/21 04:48:36;;;;;;;73.30;9.93;;;29.00;87.20;;;;;;5044828;28;20017;-51
2021/09/21 04:51:04;;;;;;;57.13;8.32;;;28.80;88.50;;;;;;5044133;28;20088;-51
2021/09/21 04:53:30;;;;;;;56.38;7.75;;;28.80;89.50;;;;;;5044269;28;20025;-51
2021/09/21 04:55:57;;;;;;;59.70;9.05;;;28.80;90.00;;;;;;5044592;28;20084;-50
2021/09/21 04:58:23;;;;;;;60.20;8.40;;;28.80;90.10;;;;;;5044525;28;20026;-54
2021/09/21 05:00:50;;;;;;;72.25;10.25;;;28.80;90.20;;;;;;5044190;28;20033;-50
2021/09/21 05:03:16;;;;;;;81.18;10.35;;;28.80;90.20;;;;;;5044225;28;20060;-47
2021/09/21 05:05:43;;;;;;;106.05;12.13;;;28.80;90.40;;;;;;5044146;28;20049;-47
2021/09/21 05:08:10;;;;;;;68.10;8.65;;;28.70;90.50;;;;;;5044378;28;20026;-49
2021/09/21 05:10:36;;;;;;;50.58;9.45;;;28.80;90.50;;;;;;5044077;28;20017;-48
2021/09/21 05:13:03;;;;;;;67.38;10.40;;;28.80;90.40;;;;;;5044200;28;20048;-50
2021/09/21 05:15:29;;;;;;;65.78;10.75;;;28.80;90.40;;;;;;5043894;28;20075;-53
2021/09/21 05:17:56;;;;;;;63.50;9.20;;;28.80;90.50;;;;;;5044245;28;20025;-50
2021/09/21 05:20:23;;;;;;;66.47;10.95;;;28.80;90.40;;;;;;5043882;28;20028;-54
2021/09/21 05:22:53;;;;;;;53.38;9.65;;;28.70;90.60;;;;;;5044045;28;20018;-48
2021/09/21 05:25:21;;;;;;;52.83;9.40;;;28.70;90.60;;;;;;5043876;28;20024;-54
2021/09/21 05:27:48;;;;;;;43.08;8.50;;;28.70;90.70;;;;;;5044045;28;20025;-48
2021/09/21 05:30:15;;;;;;;37.50;8.10;;;28.70;90.60;;;;;;5043682;28;20029;-52
2021/09/21 05:32:42;;;;;;;27.02;6.65;;;28.70;90.60;;;;;;5044152;28;20053;-48
2021/09/21 05:35:09;;;;;;;27.23;5.88;;;28.80;90.80;;;;;;5043791;28;20029;-52
2021/09/21 05:37:36;;;;;;;19.42;6.22;;;28.70;90.90;;;;;;5043505;28;20029;-50
2021/09/21 05:40:03;;;;;;;45.33;7.78;;;28.60;91.00;;;;;;5043752;28;20051;-48
2021/09/21 05:42:29;;;;;;;68.07;10.57;;;28.60;91.10;;;;;;5043914;28;20287;-52
2021/09/21 05:44:56;;;;;;;36.75;7.30;;;28.60;91.00;;;;;;5043569;28;20021;-56
2021/09/21 05:47:22;;;;;;;35.70;7.25;;;28.60;90.90;;;;;;5043817;28;20023;-48
2021/09/21 05:49:49;;;;;;;26.98;6.13;;;28.70;90.90;;;;;;5043693;28;20025;-48
2021/09/21 05:52:15;;;;;;;39.85;6.45;;;28.70;90.80;;;;;;5043764;28;20045;-59
2021/09/21 05:54:42;;;;;;;87.82;10.55;;;28.70;90.80;;;;;;5043586;28;20079;-53
2021/09/21 05:57:09;;;;;;;65.30;9.50;;;28.70;90.70;;;;;;5043831;28;20343;-47
2021/09/21 05:59:35;;;;;;;38.80;6.60;;;28.70;90.80;;;;;;5043309;28;20221;-52
2021/09/21 06:02:02;;;;;;;44.92;7.03;;;28.60;90.80;;;;;;5043633;28;20088;-47
2021/09/21 06:04:29;;;;;;;32.03;6.60;;;28.60;90.80;;;;;;5043444;28;20072;-47
2021/09/21 06:06:55;;;;;;;25.30;5.47;;;28.60;90.70;;;;;;5043405;28;20043;-51
2021/09/21 06:09:22;;;;;;;33.00;6.07;;;28.60;90.70;;;;;;5043650;28;20037;-48
2021/09/21 06:11:49;;;;;;;50.10;8.57;;;28.60;90.70;;;;;;5043330;28;20353;-48
2021/09/21 06:14:15;;;;;;;44.90;7.15;;;28.60;90.70;;;;;;5042171;28;20045;-49
2021/09/21 06:16:42;;;;;;;25.85;5.65;;;28.60;90.80;;;;;;5045503;28;20017;-47
2021/09/21 06:19:09;;;;;;;24.95;5.68;;;28.60;90.70;;;;;;5047205;28;20029;-49
2021/09/21 06:21:35;;;;;;;21.20;5.30;;;28.60;90.70;;;;;;5046949;28;20018;-50
2021/09/21 06:24:02;;;;;;;25.73;5.30;;;28.60;90.70;;;;;;5047347;28;20059;-48
2021/09/21 06:26:31;;;;;;;18.65;4.72;;;28.60;90.70;;;;;;5047031;28;20024;-56
2021/09/21 06:29:01;;;;;;;18.98;5.18;;;28.60;90.80;;;;;;5046887;28;20057;-53
2021/09/21 06:31:28;;;;;;;16.23;4.43;;;28.50;90.70;;;;;;5047018;28;20088;-55
2021/09/21 06:33:55;;;;;;;16.17;3.92;;;28.50;90.70;;;;;;5046979;28;20088;-52
2021/09/21 06:36:21;;;;;;;25.30;6.22;;;28.50;90.60;;;;;;5046794;28;20080;-51
2021/09/21 06:38:48;;;;;;;50.88;9.90;;;28.50;90.60;;;;;;5046790;28;20040;-48
2021/09/21 06:41:14;;;;;;;53.05;9.68;;;28.50;90.70;;;;;;5046891;28;20076;-51
2021/09/21 06:43:41;;;;;;;60.67;9.30;;;28.40;90.60;;;;;;5047102;28;20021;-50
2021/09/21 06:46:08;;;;;;;81.35;11.40;;;28.50;90.70;;;;;;5046700;28;20108;-49
2021/09/21 06:48:39;;;;;;;70.70;11.40;;;28.40;90.80;;;;;;5047208;28;20032;-49
2021/09/21 06:51:07;;;;;;;72.00;8.80;;;28.40;90.80;;;;;;5046439;28;20329;-52
2021/09/21 06:53:34;;;;;;;62.03;9.43;;;28.40;90.90;;;;;;5047039;28;20033;-50
2021/09/21 06:56:00;;;;;;;84.50;11.35;;;28.30;90.90;;;;;;5046538;28;20021;-50
2021/09/21 06:58:30;;;;;;;87.93;9.98;;;28.30;90.80;;;;;;5046684;28;20029;-50
2021/09/21 07:00:56;;;;;;;78.22;8.60;;;28.30;90.90;;;;;;5046443;28;20082;-47
2021/09/21 07:03:23;;;;;;;57.80;8.73;;;28.30;91.00;;;;;;5046828;28;20028;-53
2021/09/21 07:05:49;;;;;;;77.20;10.40;;;28.30;90.90;;;;;;5046125;28;20028;-54
2021/09/21 07:08:18;;;;;;;77.15;8.98;;;28.30;90.90;;;;;;5046750;28;20029;-51
2021/09/21 07:10:45;;;;;;;68.18;8.82;;;28.20;90.80;;;;;;5046225;28;20025;-53
2021/09/21 07:13:11;;;;;;;74.65;9.15;;;28.20;90.90;;;;;;5046406;28;20053;-55
2021/09/21 07:15:38;;;;;;;59.33;7.93;;;28.20;90.90;;;;;;5046194;28;20029;-51
2021/09/21 07:18:04;;;;;;;64.80;7.80;;;28.20;90.90;;;;;;5046395;28;20218;-53
2021/09/21 07:20:31;;;;;;;84.55;9.07;;;28.20;90.90;;;;;;5046005;28;20025;-50
2021/09/21 07:22:57;;;;;;;79.30;10.20;;;28.20;90.90;;;;;;5045950;28;20032;-53
2021/09/21 07:25:24;;;;;;;73.07;8.75;;;28.20;90.90;;;;;;5046024;28;20021;-56
2021/09/21 07:27:52;;;;;;;61.17;7.63;;;28.20;90.80;;;;;;5045687;28;20049;-57
2021/09/21 07:30:19;;;;;;;75.95;9.02;;;28.20;90.60;;;;;;5046210;28;20248;-49
2021/09/21 07:32:46;;;;;;;72.10;7.32;;;28.20;90.50;;;;;;5046143;28;20029;-53
2021/09/21 07:35:13;;;;;;;64.65;7.43;;;28.10;90.50;;;;;;5045777;28;20024;-48
2021/09/21 07:37:40;;;;;;;66.85;6.30;;;28.10;90.50;;;;;;5045965;28;20041;-48
2021/09/21 07:40:08;;;;;;;74.18;7.60;;;28.00;90.50;;;;;;5045833;28;20022;-51
2021/09/21 07:42:35;;;;;;;70.90;8.07;;;28.10;90.40;;;;;;5045764;28;20033;-50
2021/09/21 07:45:06;;;;;;;69.53;7.90;;;28.00;90.50;;;;;;5045656;28;20038;-53
2021/09/21 07:47:33;;;;;;;103.20;8.93;;;28.00;90.50;;;;;;5045851;28;20029;-52
2021/09/21 07:50:00;;;;;;;70.40;7.05;;;28.00;90.50;;;;;;5045447;28;20025;-49
2021/09/21 07:52:27;;;;;;;75.85;7.00;;;28.00;90.50;;;;;;5045817;28;20072;-52
2021/09/21 07:54:54;;;;;;;88.20;8.40;;;28.00;90.40;;;;;;5045476;28;20309;-50
2021/09/21 07:57:20;;;;;;;76.43;7.97;;;28.00;90.30;;;;;;5045444;28;20056;-47
2021/09/21 07:59:47;;;;;;;112.38;10.65;;;28.00;90.30;;;;;;5045293;28;20403;-51
2021/09/21 08:02:13;;;;;;;100.40;9.57;;;28.00;90.30;;;;;;5045447;28;20029;-47
2021/09/21 08:04:42;;;;;;;87.22;8.90;;;28.00;90.40;;;;;;5045176;28;20214;-49
2021/09/21 08:07:09;;;;;;;106.03;9.90;;;28.00;90.20;;;;;;5045090;28;20234;-48
2021/09/21 08:09:37;;;;;;;129.18;12.95;;;27.90;90.30;;;;;;5045413;28;20014;-51
2021/09/21 08:12:04;;;;;;;123.50;13.82;;;27.90;90.20;;;;;;5045003;28;20061;-52
2021/09/21 08:14:37;;;;;;;116.45;13.15;;;28.00;90.20;;;;;;5045293;28;20029;-49
2021/09/21 08:17:05;;;;;;;106.68;11.02;;;27.90;90.20;;;;;;5045069;28;20041;-50
2021/09/21 08:19:32;;;;;;;77.30;9.13;;;27.90;90.20;;;;;;5044725;28;20028;-53
2021/09/21 08:21:59;;;;;;;105.78;9.90;;;27.90;90.20;;;;;;5044993;28;20021;-47
2021/09/21 08:24:26;;;;;;;95.22;11.40;;;27.90;90.20;;;;;;5044881;28;20018;-49
2021/09/21 08:26:53;;;;;;;88.78;9.32;;;28.00;90.10;;;;;;5045028;28;20092;-49
2021/09/21 08:29:19;;;;;;;80.75;8.73;;;28.00;90.20;;;;;;5044765;28;20025;-52
2021/09/21 08:31:46;;;;;;;58.17;7.45;;;28.00;90.10;;;;;;5044720;28;20079;-49
2021/09/21 08:34:12;;;;;;;90.00;9.27;;;28.00;90.10;;;;;;5044592;28;20025;-51
2021/09/21 08:36:39;;;;;;;89.45;9.27;;;27.90;90.10;;;;;;5044588;28;20021;-48
2021/09/21 08:39:06;;;;;;;117.90;11.73;;;27.90;90.10;;;;;;5044130;28;20025;-51
2021/09/21 08:41:33;;;;;;;106.95;11.15;;;27.90;90.20;;;;;;5044428;28;20075;-48
2021/09/21 08:44:00;;;;;;;121.97;11.73;;;27.90;90.30;;;;;;5044511;28;20028;-47
2021/09/21 08:46:27;;;;;;;131.20;12.27;;;27.80;90.30;;;;;;5044426;28;20014;-49
2021/09/21 08:48:54;;;;;;;131.55;13.02;;;27.80;90.20;;;;;;5044582;28;20021;-51
2021/09/21 08:51:21;;;;;;;133.52;11.43;;;27.90;90.30;;;;;;5044373;28;20105;-53
2021/09/21 08:53:47;;;;;;;112.45;10.07;;;27.90;90.20;;;;;;5045075;28;20037;-49
2021/09/21 08:56:14;;;;;;;137.48;12.07;;;27.90;90.20;;;;;;5044311;28;20025;-50
2021/09/21 08:58:41;;;;;;;97.78;8.65;;;27.90;90.30;;;;;;5044660;28;20060;-54
2021/09/21 09:01:15;;;;;;;83.93;9.20;;;27.80;90.30;;;;;;5044236;28;20017;-51
2021/09/21 09:03:53;;;;;;;76.68;7.85;;;27.70;90.30;;;;;;5044502;28;20093;-50
2021/09/21 09:06:19;;;;;;;72.72;8.57;;;27.70;90.40;;;;;;5044073;28;20013;-50
2021/09/21 09:08:46;;;;;;;114.25;10.13;;;27.70;90.40;;;;;;5044553;28;20248;-49
2021/09/21 09:11:24;;;;;;;96.22;9.13;;;27.80;90.40;;;;;;5043969;28;20080;-55
2021/09/21 09:13:53;;;;;;;127.35;10.70;;;27.80;90.40;;;;;;5044069;28;20045;-50
2021/09/21 09:16:23;;;;;;;106.35;8.82;;;27.80;90.40;;;;;;5043935;28;20332;-51
2021/09/21 09:19:07;;;;;;;74.25;7.45;;;27.80;90.40;;;;;;5043871;28;20057;-48
2021/09/21 09:21:38;;;;;;;107.57;7.28;;;27.90;90.30;;;;;;5043731;28;20021;-49
2021/09/21 09:24:06;;;;;;;90.43;7.93;;;27.80;90.40;;;;;;5043911;28;20017;-49
2021/09/21 09:26:39;;;;;;;99.57;9.80;;;27.80;90.30;;;;;;5043818;28;20025;-48
2021/09/21 09:29:11;;;;;;;111.10;10.13;;;27.80;90.30;;;;;;5043684;28;20075;-47
2021/09/21 09:31:39;;;;;;;109.53;10.05;;;27.80;90.30;;;;;;5043772;28;20413;-50
2021/09/21 09:34:13;;;;;;;110.65;9.45;;;27.80;90.30;;;;;;5043755;28;20096;-51
2021/09/21 09:36:49;;;;;;;102.68;8.82;;;27.80;90.30;;;;;;5043679;28;20017;-51
2021/09/21 09:39:18;;;;;;;96.28;9.38;;;27.80;90.60;;;;;;5043590;28;20029;-49
2021/09/21 09:41:45;;;;;;;105.05;8.40;;;27.70;90.40;;;;;;5043607;28;20072;-48
2021/09/21 09:44:15;;;;;;;100.15;8.00;;;27.80;90.30;;;;;;5043752;28;20013;-51
2021/09/21 09:46:48;;;;;;;98.20;8.25;;;27.80;90.30;;;;;;5043683;28;20013;-47
2021/09/21 09:49:27;;;;;;;157.20;11.88;;;27.80;90.30;;;;;;5043940;28;20213;-47
2021/09/21 09:52:02;;;;;;;97.10;8.20;;;27.80;90.40;;;;;;5047779;28;20029;-50
2021/09/21 09:54:28;;;;;;;64.03;5.28;;;27.80;90.40;;;;;;5047724;28;20365;-50
2021/09/21 09:56:56;;;;;;;65.40;5.38;;;27.80;90.50;;;;;;5047738;28;20029;-51
2021/09/21 09:59:25;;;;;;;42.20;4.50;;;27.80;90.50;;;;;;5047490;28;20253;-53
2021/09/21 10:01:52;;;;;;;32.95;3.47;;;27.70;90.50;;;;;;5047568;28;20026;-49
2021/09/21 10:04:19;;;;;;;27.20;3.20;;;27.70;90.60;;;;;;5047492;28;20036;-52
2021/09/21 10:06:46;;;;;;;29.00;2.97;;;27.70;90.60;;;;;;5047330;28;20025;-49
2021/09/21 10:09:12;;;;;;;30.42;3.05;;;27.70;90.60;;;;;;5047492;28;20263;-50
2021/09/21 10:11:40;;;;;;;18.83;1.77;;;27.70;90.60;;;;;;5047214;28;20026;-49
2021/09/21 10:14:07;;;;;;;15.68;1.90;;;27.70;90.60;;;;;;5047763;28;20025;-47
2021/09/21 10:16:34;;;;;;;16.52;2.20;;;27.60;90.70;;;;;;5047241;28;20036;-49
2021/09/21 10:19:03;;;;;;;17.75;2.20;;;27.60;90.80;;;;;;5047193;28;20033;-47
2021/09/21 10:21:35;;;;;;;15.70;1.58;;;27.50;90.70;;;;;;5047006;28;20368;-49
2021/09/21 10:24:04;;;;;;;14.98;1.42;;;27.60;90.70;;;;;;5046066;28;20026;-48
2021/09/21 10:26:38;;;;;;;13.43;1.73;;;27.60;90.60;;;;;;5047064;28;20021;-58
2021/09/21 10:29:05;;;;;;;9.80;1.55;;;27.60;90.60;;;;;;5046916;28;20033;-49
2021/09/21 10:31:34;;;;;;;7.47;1.58;;;27.50;90.60;;;;;;5046989;28;20025;-52
2021/09/21 10:34:12;;;;;;;4.05;1.00;;;27.50;90.60;;;;;;5046970;28;20246;-50
2021/09/21 10:36:47;;;;;;;6.90;1.15;;;27.60;90.60;;;;;;5046985;28;20044;-50
2021/09/21 10:39:15;;;;;;;4.28;1.10;;;27.60;90.50;;;;;;5045703;28;20057;-47
2021/09/21 10:41:52;;;;;;;6.15;1.10;;;27.60;90.50;;;;;;5047061;28;20025;-47
2021/09/21 10:44:20;;;;;;;9.05;1.25;;;27.60;90.40;;;;;;5046788;28;20017;-53
2021/09/21 10:46:54;;;;;;;10.07;1.23;;;27.60;90.50;;;;;;5046638;28;20029;-50
2021/09/21 10:49:40;;;;;;;8.27;1.35;;;27.60;90.60;;;;;;5046865;28;20045;-50
2021/09/21 10:52:09;;;;;;;11.63;1.40;;;27.50;90.60;;;;;;5046800;28;20178;-55
2021/09/21 10:54:38;;;;;;;26.23;2.30;;;27.50;90.70;;;;;;5046579;28;20092;-50
2021/09/21 10:57:27;;;;;;;21.88;1.90;;;27.50;90.80;;;;;;5047035;28;20032;-57
2021/09/21 11:00:07;;;;;;;26.23;2.35;;;27.40;90.80;;;;;;5046448;28;20024;-52
2021/09/21 11:02:42;;;;;;;27.58;2.15;;;27.50;90.90;;;;;;5045757;28;20075;-51
2021/09/21 11:05:17;;;;;;;14.00;1.50;;;27.40;90.90;;;;;;5046367;28;20025;-51
2021/09/21 11:08:06;;;;;;;26.52;1.95;;;27.40;91.00;;;;;;5046505;28;20059;-50
2021/09/21 11:10:37;;;;;;;21.95;2.58;;;27.40;91.00;;;;;;5046321;28;20241;-51
2021/09/21 11:13:15;;;;;;;28.77;2.70;;;27.40;90.90;;;;;;5046416;28;20116;-54
2021/09/21 11:15:43;;;;;;;29.83;2.63;;;27.40;91.00;;;;;;5046170;28;20036;-53
2021/09/21 11:18:15;;;;;;;44.47;4.07;;;27.30;91.00;;;;;;5045283;28;20021;-50
2021/09/21 11:20:55;;;;;;;53.88;4.85;;;27.30;91.00;;;;;;5046017;28;20021;-50
2021/09/21 11:23:24;;;;;;;41.70;4.05;;;27.30;91.00;;;;;;5046121;28;20025;-51
2021/09/21 11:25:52;;;;;;;49.47;4.80;;;27.30;91.00;;;;;;5045900;28;20242;-50
2021/09/21 11:28:20;;;;;;;43.35;5.28;;;27.30;91.10;;;;;;5046616;28;20029;-47
2021/09/21 11:30:47;;;;;;;101.30;9.30;;;27.30;91.10;;;;;;5046057;28;20026;-51
2021/09/21 11:33:16;;;;;;;112.82;10.02;;;27.30;91.00;;;;;;5046017;28;20241;-48
2021/09/21 11:35:47;;;;;;;74.40;7.93;;;27.30;91.10;;;;;;5045881;28;20028;-49
2021/09/21 11:38:14;;;;;;;61.03;6.75;;;27.40;91.10;;;;;;5046052;28;20021;-51
2021/09/21 11:40:43;;;;;;;47.85;6.28;;;27.30;91.00;;;;;;5044504;28;20076;-59
2021/09/21 11:43:14;;;;;;;83.53;9.32;;;27.40;91.00;;;;;;5046017;28;20029;-52
2021/09/21 11:45:43;;;;;;;68.25;8.23;;;27.40;91.00;;;;;;5045530;28;20226;-52
2021/09/21 11:48:11;;;;;;;57.55;7.72;;;27.40;90.90;;;;;;5045882;28;20026;-56
2021/09/21 11:50:40;;;;;;;81.72;8.88;;;27.40;91.00;;;;;;5045645;28;20045;-48
2021/09/21 11:53:10;;;;;;;76.47;9.27;;;27.40;90.90;;;;;;5045693;28;20018;-48
2021/09/21 11:55:40;;;;;;;92.50;10.43;;;27.40;90.90;;;;;;5045462;28;20021;-48
2021/09/21 11:58:10;;;;;;;97.82;8.70;;;27.50;90.90;;;;;;5045625;28;20030;-53
2021/09/21 12:00:39;;;;;;;73.97;7.15;;;27.40;90.90;;;;;;5045501;28;20037;-48
2021/09/21 12:03:11;;;;;;;58.60;6.18;;;27.50;91.00;;;;;;5045872;28;20368;-55
2021/09/21 12:05:39;;;;;;;;;;;27.50;91.00;;;;;;5045675;28;20029;-57
2021/09/21 12:08:09;;;;;;;41.83;4.18;;;27.50;91.00;;;;;;5045440;28;19917;-51
2021/09/21 12:10:37;;;;;;;36.53;3.63;;;27.50;91.00;;;;;;5045161;28;20017;-47
2021/09/21 12:13:14;;;;;;;32.22;3.90;;;27.50;91.00;;;;;;5044670;28;20269;-49
2021/09/21 12:15:43;;;;;;;24.88;2.95;;;27.50;91.10;;;;;;5044830;28;20021;-49
2021/09/21 12:18:12;;;;;;;20.33;2.38;;;27.50;91.10;;;;;;5045268;28;20053;-54
2021/09/21 12:20:41;;;;;;;14.27;2.20;;;27.50;91.10;;;;;;5044750;28;20063;-48
2021/09/21 12:23:10;;;;;;;12.43;1.90;;;27.50;91.10;;;;;;5045547;28;20022;-48
2021/09/21 12:25:40;;;;;;;18.92;2.10;;;27.50;91.10;;;;;;5045143;28;20021;-48
2021/09/21 12:28:10;;;;;;;14.07;1.90;;;27.50;91.20;;;;;;5045118;28;20052;-49
2021/09/21 12:30:42;;;;;;;13.48;1.67;;;27.50;91.20;;;;;;5044722;28;20018;-51
2021/09/21 12:33:12;;;;;;;6.35;0.98;;;27.50;91.20;;;;;;5045035;28;20021;-48
2021/09/21 12:35:53;;;;;;;13.77;1.40;;;27.50;91.20;;;;;;5044758;28;20029;-54
2021/09/21 12:38:25;;;;;;;6.70;1.33;;;27.50;91.20;;;;;;5044472;28;20025;-50
2021/09/21 12:41:05;;;;;;;8.27;1.35;;;27.50;91.20;;;;;;5044719;28;20024;-53
2021/09/21 12:43:42;;;;;;;7.53;1.42;;;27.50;91.30;;;;;;5045083;28;20028;-50
2021/09/21 12:46:12;;;;;;;8.18;1.52;;;27.50;91.30;;;;;;5044525;28;20021;-54
2021/09/21 12:48:43;;;;;;;6.28;1.42;;;27.50;91.40;;;;;;5044450;28;20029;-51
2021/09/21 12:51:11;;;;;;;6.93;1.40;;;27.50;91.40;;;;;;5044327;28;20037;-47
2021/09/21 12:53:38;;;;;;;4.93;1.20;;;27.60;91.40;;;;;;5044795;28;20025;-49